sensor_id;sensor_type;location;lat;lon;timestamp;pressure;altitude;pressure_sealevel;temperature;humidity
41688;BME280;27371;42.686;23.362;2023-02-12T00:00:09;162307.09;;;0.41;44.41
41688;BME280;27371;42.686;23.362;2023-02-12T00:02:34;162305.78;;;0.40;44.40
41688;BME280;27371;42.686;23.362;2023-02-12T00:05:00;162324.38;;;0.48;44.54
41688;BME280;27371;42.686;23.362;2023-02-12T00:07:29;162304.47;;;0.40;44.92
41688;BME280;27371;42.686;23.362;2023-02-12T00:09:55;162316.41;;;0.44;44.76
41688;BME280;27371;42.686;23.362;2023-02-12T00:12:21;162261.97;;;0.24;45.26
41688;BME280;27371;42.686;23.362;2023-02-12T00:14:46;162238.09;;;0.14;45.33
41688;BME280;27371;42.686;23.362;2023-02-12T00:17:12;162243.38;;;0.16;45.78
41688;BME280;27371;42.686;23.362;2023-02-12T00:19:37;162234.09;;;0.13;45.57
41688;BME280;27371;42.686;23.362;2023-02-12T00:22:02;162251.38;;;0.19;45.68
41688;BME280;27371;42.686;23.362;2023-02-12T00:24:28;162267.31;;;0.26;45.48
41688;BME280;27371;42.686;23.362;2023-02-12T00:26:53;162280.59;;;0.31;45.17
41688;BME280;27371;42.686;23.362;2023-02-12T00:29:19;162288.53;;;0.34;45.23
41688;BME280;27371;42.686;23.362;2023-02-12T00:31:45;162284.53;;;0.32;45.63
41688;BME280;27371;42.686;23.362;2023-02-12T00:34:10;162295.19;;;0.36;45.45
41688;BME280;27371;42.686;23.362;2023-02-12T00:36:36;162257.97;;;0.22;45.10
41688;BME280;27371;42.686;23.362;2023-02-12T00:39:02;162280.59;;;0.31;45.32
41688;BME280;27371;42.686;23.362;2023-02-12T00:41:28;162280.59;;;0.31;45.52
41688;BME280;27371;42.686;23.362;2023-02-12T00:43:53;162255.34;;;0.21;45.36
41688;BME280;27371;42.686;23.362;2023-02-12T00:46:19;162296.50;;;0.37;45.12
41688;BME280;27371;42.686;23.362;2023-02-12T00:48:45;162299.13;;;0.38;44.93
41688;BME280;27371;42.686;23.362;2023-02-12T00:51:10;162308.47;;;0.41;45.11
41688;BME280;27371;42.686;23.362;2023-02-12T00:53:36;162313.72;;;0.43;44.83
41688;BME280;27371;42.686;23.362;2023-02-12T00:56:02;162319.06;;;0.46;45.04
41688;BME280;27371;42.686;23.362;2023-02-12T00:58:27;162305.78;;;0.40;44.95
41688;BME280;27371;42.686;23.362;2023-02-12T01:03:28;162307.09;;;0.41;45.10
41688;BME280;27371;42.686;23.362;2023-02-12T01:05:53;162315.06;;;0.44;45.07
41688;BME280;27371;42.686;23.362;2023-02-12T01:08:19;162300.44;;;0.38;44.85
41688;BME280;27371;42.686;23.362;2023-02-12T01:10:44;162307.09;;;0.41;44.92
41688;BME280;27371;42.686;23.362;2023-02-12T01:13:13;162301.81;;;0.39;44.68
41688;BME280;27371;42.686;23.362;2023-02-12T01:15:40;162328.34;;;0.49;44.87
41688;BME280;27371;42.686;23.362;2023-02-12T01:18:06;162319.06;;;0.46;45.15
41688;BME280;27371;42.686;23.362;2023-02-12T01:20:32;162317.75;;;0.45;45.15
41688;BME280;27371;42.686;23.362;2023-02-12T01:22:57;162317.75;;;0.45;45.08
41688;BME280;27371;42.686;23.362;2023-02-12T01:25:23;162334.97;;;0.52;45.31
41688;BME280;27371;42.686;23.362;2023-02-12T01:27:52;162344.31;;;0.55;45.39
41688;BME280;27371;42.686;23.362;2023-02-12T01:30:18;162345.63;;;0.56;45.38
41688;BME280;27371;42.686;23.362;2023-02-12T01:32:46;162327.03;;;0.49;45.82
41688;BME280;27371;42.686;23.362;2023-02-12T01:35:11;162331.03;;;0.50;45.51
41688;BME280;27371;42.686;23.362;2023-02-12T01:37:37;162315.06;;;0.44;45.66
41688;BME280;27371;42.686;23.362;2023-02-12T01:40:03;162313.72;;;0.43;45.74
41688;BME280;27371;42.686;23.362;2023-02-12T01:42:29;162319.06;;;0.46;45.74
41688;BME280;27371;42.686;23.362;2023-02-12T01:47:43;162309.78;;;0.42;46.15
41688;BME280;27371;42.686;23.362;2023-02-12T01:50:15;162268.63;;;0.26;46.34
41688;BME280;27371;42.686;23.362;2023-02-12T01:52:49;162159.81;;;-0.16;47.23
41688;BME280;27371;42.686;23.362;2023-02-12T01:55:16;162102.75;;;-0.38;48.46
41688;BME280;27371;42.686;23.362;2023-02-12T01:57:44;162081.53;;;-0.46;48.43
41688;BME280;27371;42.686;23.362;2023-02-12T02:00:14;162113.34;;;-0.34;48.80
41688;BME280;27371;42.686;23.362;2023-02-12T02:02:43;162114.66;;;-0.33;48.74
41688;BME280;27371;42.686;23.362;2023-02-12T02:05:09;162121.31;;;-0.31;48.57
41688;BME280;27371;42.686;23.362;2023-02-12T02:07:39;162141.22;;;-0.23;48.69
41688;BME280;27371;42.686;23.362;2023-02-12T02:10:05;162142.53;;;-0.23;48.94
41688;BME280;27371;42.686;23.362;2023-02-12T02:12:31;162131.94;;;-0.27;49.10
41688;BME280;27371;42.686;23.362;2023-02-12T02:15:15;162129.25;;;-0.28;49.13
41688;BME280;27371;42.686;23.362;2023-02-12T02:17:51;162131.94;;;-0.27;49.53
41688;BME280;27371;42.686;23.362;2023-02-12T02:32:00;162146.53;;;-0.21;50.02
41688;BME280;27371;42.686;23.362;2023-02-12T02:37:22;162153.16;;;-0.18;50.15
41688;BME280;27371;42.686;23.362;2023-02-12T02:39:54;162151.84;;;-0.19;50.51
41688;BME280;27371;42.686;23.362;2023-02-12T02:44:56;162175.72;;;-0.10;50.35
41688;BME280;27371;42.686;23.362;2023-02-12T02:47:28;162182.38;;;-0.07;50.77
41688;BME280;27371;42.686;23.362;2023-02-12T02:50:04;162170.41;;;-0.12;50.54
41688;BME280;27371;42.686;23.362;2023-02-12T02:52:36;162178.34;;;-0.09;50.74
41688;BME280;27371;42.686;23.362;2023-02-12T02:55:06;162178.34;;;-0.09;50.50
41688;BME280;27371;42.686;23.362;2023-02-12T02:57:44;162186.31;;;-0.06;50.56
41688;BME280;27371;42.686;23.362;2023-02-12T03:00:12;162210.22;;;0.04;50.50
41688;BME280;27371;42.686;23.362;2023-02-12T03:02:42;162222.13;;;0.08;50.39
41688;BME280;27371;42.686;23.362;2023-02-12T03:05:21;162219.50;;;0.07;50.35
41688;BME280;27371;42.686;23.362;2023-02-12T03:08:15;162227.47;;;0.10;50.27
41688;BME280;27371;42.686;23.362;2023-02-12T03:10:58;162226.16;;;0.10;50.28
41688;BME280;27371;42.686;23.362;2023-02-12T03:13:31;162227.47;;;0.10;50.45
41688;BME280;27371;42.686;23.362;2023-02-12T03:16:22;162240.75;;;0.15;50.31
41688;BME280;27371;42.686;23.362;2023-02-12T03:19:10;162208.91;;;0.03;50.48
41688;BME280;27371;42.686;23.362;2023-02-12T03:21:46;162186.31;;;-0.06;50.73
41688;BME280;27371;42.686;23.362;2023-02-12T03:24:20;162175.72;;;-0.10;51.21
41688;BME280;27371;42.686;23.362;2023-02-12T03:26:55;162153.16;;;-0.18;51.54
41688;BME280;27371;42.686;23.362;2023-02-12T03:29:23;162076.22;;;-0.48;51.17
41688;BME280;27371;42.686;23.362;2023-02-12T03:31:57;162057.63;;;-0.55;51.90
41688;BME280;27371;42.686;23.362;2023-02-12T03:34:53;162049.66;;;-0.58;52.01
41688;BME280;27371;42.686;23.362;2023-02-12T03:37:40;162058.97;;;-0.55;52.00
41688;BME280;27371;42.686;23.362;2023-02-12T03:40:30;162076.22;;;-0.48;51.70
41688;BME280;27371;42.686;23.362;2023-02-12T03:43:06;162080.22;;;-0.47;51.63
41688;BME280;27371;42.686;23.362;2023-02-12T03:48:50;162143.91;;;-0.22;51.20
41688;BME280;27371;42.686;23.362;2023-02-12T03:53:49;162159.81;;;-0.16;51.00
41688;BME280;27371;42.686;23.362;2023-02-12T03:56:21;162192.94;;;-0.03;50.96
41688;BME280;27371;42.686;23.362;2023-02-12T03:58:48;162182.38;;;-0.07;50.92
41688;BME280;27371;42.686;23.362;2023-02-12T04:01:13;162212.88;;;0.05;50.38
41688;BME280;27371;42.686;23.362;2023-02-12T04:03:39;162206.22;;;0.02;50.43
41688;BME280;27371;42.686;23.362;2023-02-12T04:06:18;162250.03;;;0.19;50.57
41688;BME280;27371;42.686;23.362;2023-02-12T04:08:44;162234.09;;;0.13;50.29
41688;BME280;27371;42.686;23.362;2023-02-12T04:11:29;162268.63;;;0.26;50.58
41688;BME280;27371;42.686;23.362;2023-02-12T04:19:14;162283.22;;;0.32;50.38
41688;BME280;27371;42.686;23.362;2023-02-12T04:27:14;162293.81;;;0.36;50.46
41688;BME280;27371;42.686;23.362;2023-02-12T04:32:34;162288.53;;;0.34;50.66
41688;BME280;27371;42.686;23.362;2023-02-12T04:35:09;162304.47;;;0.40;50.34
41688;BME280;27371;42.686;23.362;2023-02-12T04:40:15;162297.81;;;0.37;50.61
41688;BME280;27371;42.686;23.362;2023-02-12T04:42:47;162316.41;;;0.44;50.57
41688;BME280;27371;42.686;23.362;2023-02-12T04:45:23;162291.19;;;0.35;51.02
41688;BME280;27371;42.686;23.362;2023-02-12T04:47:50;162293.81;;;0.36;51.03
41688;BME280;27371;42.686;23.362;2023-02-12T04:50:16;162280.59;;;0.31;51.15
41688;BME280;27371;42.686;23.362;2023-02-12T04:52:42;162289.84;;;0.34;51.06
41688;BME280;27371;42.686;23.362;2023-02-12T04:55:07;162296.50;;;0.37;50.89
41688;BME280;27371;42.686;23.362;2023-02-12T04:57:33;162281.91;;;0.31;51.02
41688;BME280;27371;42.686;23.362;2023-02-12T04:59:58;162293.81;;;0.36;50.52
41688;BME280;27371;42.686;23.362;2023-02-12T05:02:24;162251.38;;;0.19;50.93
41688;BME280;27371;42.686;23.362;2023-02-12T05:04:49;162195.63;;;-0.02;52.00
41688;BME280;27371;42.686;23.362;2023-02-12T05:07:15;162187.69;;;-0.05;52.05
41688;BME280;27371;42.686;23.362;2023-02-12T05:09:41;162206.22;;;0.02;51.87
41688;BME280;27371;42.686;23.362;2023-02-12T05:12:07;162223.50;;;0.09;52.15
41688;BME280;27371;42.686;23.362;2023-02-12T05:14:32;162190.31;;;-0.04;52.26
41688;BME280;27371;42.686;23.362;2023-02-12T05:16:58;162216.88;;;0.06;52.06
41688;BME280;27371;42.686;23.362;2023-02-12T05:19:23;162260.66;;;0.23;52.00
41688;BME280;27371;42.686;23.362;2023-02-12T05:21:49;162285.84;;;0.33;51.69
41688;BME280;27371;42.686;23.362;2023-02-12T05:24:15;162316.41;;;0.44;51.19
41688;BME280;27371;42.686;23.362;2023-02-12T05:26:41;162327.03;;;0.49;51.25
41688;BME280;27371;42.686;23.362;2023-02-12T05:29:06;162354.91;;;0.59;51.44
41688;BME280;27371;42.686;23.362;2023-02-12T05:31:32;162374.81;;;0.67;51.61
41688;BME280;27371;42.686;23.362;2023-02-12T05:33:58;162364.19;;;0.63;51.51
41688;BME280;27371;42.686;23.362;2023-02-12T05:36:24;162390.75;;;0.73;51.29
41688;BME280;27371;42.686;23.362;2023-02-12T05:38:50;162386.75;;;0.72;50.89
41688;BME280;27371;42.686;23.362;2023-02-12T05:41:18;162416.00;;;0.83;50.72
41688;BME280;27371;42.686;23.362;2023-02-12T05:43:44;162417.31;;;0.83;50.86
41688;BME280;27371;42.686;23.362;2023-02-12T05:46:10;162433.25;;;0.89;51.06
41688;BME280;27371;42.686;23.362;2023-02-12T05:48:36;162439.88;;;0.92;51.25
41688;BME280;27371;42.686;23.362;2023-02-12T05:51:04;162438.56;;;0.92;51.43
41688;BME280;27371;42.686;23.362;2023-02-12T05:53:30;162434.56;;;0.90;51.81
41688;BME280;27371;42.686;23.362;2023-02-12T05:56:27;162441.22;;;0.93;51.99
41688;BME280;27371;42.686;23.362;2023-02-12T05:58:57;162419.97;;;0.84;52.96
41688;BME280;27371;42.686;23.362;2023-02-12T06:01:26;162427.91;;;0.87;53.73
41688;BME280;27371;42.686;23.362;2023-02-12T06:03:53;162412.00;;;0.81;54.18
41688;BME280;27371;42.686;23.362;2023-02-12T06:06:18;162401.41;;;0.77;55.23
41688;BME280;27371;42.686;23.362;2023-02-12T06:08:47;162393.38;;;0.74;56.01
41688;BME280;27371;42.686;23.362;2023-02-12T06:11:13;162381.47;;;0.70;56.80
41688;BME280;27371;42.686;23.362;2023-02-12T06:13:40;162360.22;;;0.61;57.38
41688;BME280;27371;42.686;23.362;2023-02-12T06:16:06;162369.50;;;0.65;57.68
41688;BME280;27371;42.686;23.362;2023-02-12T06:18:34;162356.22;;;0.60;58.27
41688;BME280;27371;42.686;23.362;2023-02-12T06:21:02;162365.56;;;0.63;58.44
41688;BME280;27371;42.686;23.362;2023-02-12T06:23:27;162362.88;;;0.62;58.42
41688;BME280;27371;42.686;23.362;2023-02-12T06:25:55;162382.78;;;0.70;58.83
41688;BME280;27371;42.686;23.362;2023-02-12T06:28:21;162373.50;;;0.66;59.20
41688;BME280;27371;42.686;23.362;2023-02-12T06:30:46;162361.53;;;0.62;59.61
41688;BME280;27371;42.686;23.362;2023-02-12T06:33:12;162380.16;;;0.69;60.61
41688;BME280;27371;42.686;23.362;2023-02-12T06:35:38;162338.97;;;0.53;61.09
41688;BME280;27371;42.686;23.362;2023-02-12T06:38:03;162284.53;;;0.32;62.50
41688;BME280;27371;42.686;23.362;2023-02-12T06:40:29;162256.66;;;0.21;64.40
41688;BME280;27371;42.686;23.362;2023-02-12T06:42:55;162254.03;;;0.20;65.88
41688;BME280;27371;42.686;23.362;2023-02-12T06:45:21;162250.03;;;0.19;66.50
41688;BME280;27371;42.686;23.362;2023-02-12T06:47:47;162235.44;;;0.13;67.01
41688;BME280;27371;42.686;23.362;2023-02-12T06:50:12;162261.97;;;0.24;67.03
41688;BME280;27371;42.686;23.362;2023-02-12T06:52:38;162272.63;;;0.28;67.19
41688;BME280;27371;42.686;23.362;2023-02-12T06:55:03;162281.91;;;0.31;67.02
41688;BME280;27371;42.686;23.362;2023-02-12T06:57:29;162295.19;;;0.36;67.20
41688;BME280;27371;42.686;23.362;2023-02-12T06:59:55;162307.09;;;0.41;67.08
41688;BME280;27371;42.686;23.362;2023-02-12T07:02:21;162324.38;;;0.48;67.23
41688;BME280;27371;42.686;23.362;2023-02-12T07:04:47;162337.66;;;0.53;67.31
41688;BME280;27371;42.686;23.362;2023-02-12T07:07:12;162316.41;;;0.44;67.38
41688;BME280;27371;42.686;23.362;2023-02-12T07:09:38;162338.97;;;0.53;67.25
41688;BME280;27371;42.686;23.362;2023-02-12T07:12:04;162358.91;;;0.61;67.52
41688;BME280;27371;42.686;23.362;2023-02-12T07:14:29;162369.50;;;0.65;66.98
41688;BME280;27371;42.686;23.362;2023-02-12T07:16:55;162361.53;;;0.62;67.17
41688;BME280;27371;42.686;23.362;2023-02-12T07:19:21;162382.78;;;0.70;67.08
41688;BME280;27371;42.686;23.362;2023-02-12T07:21:47;162386.75;;;0.72;67.29
41688;BME280;27371;42.686;23.362;2023-02-12T07:24:14;162406.69;;;0.79;66.82
41688;BME280;27371;42.686;23.362;2023-02-12T07:26:40;162409.38;;;0.80;66.94
41688;BME280;27371;42.686;23.362;2023-02-12T07:29:06;162390.75;;;0.73;66.78
41688;BME280;27371;42.686;23.362;2023-02-12T07:31:31;162413.31;;;0.82;67.66
41688;BME280;27371;42.686;23.362;2023-02-12T07:33:58;162417.31;;;0.83;66.76
41688;BME280;27371;42.686;23.362;2023-02-12T07:36:28;162414.63;;;0.82;66.54
41688;BME280;27371;42.686;23.362;2023-02-12T07:38:55;162362.88;;;0.62;66.87
41688;BME280;27371;42.686;23.362;2023-02-12T07:41:23;162372.16;;;0.66;67.02
41688;BME280;27371;42.686;23.362;2023-02-12T07:43:54;162370.81;;;0.65;66.96
41688;BME280;27371;42.686;23.362;2023-02-12T07:46:22;162345.63;;;0.56;66.91
41688;BME280;27371;42.686;23.362;2023-02-12T07:48:51;162394.75;;;0.75;67.08
41688;BME280;27371;42.686;23.362;2023-02-12T07:51:17;162380.16;;;0.69;66.81
41688;BME280;27371;42.686;23.362;2023-02-12T07:53:45;162361.53;;;0.62;67.10
41688;BME280;27371;42.686;23.362;2023-02-12T07:56:14;162372.16;;;0.66;67.31
41688;BME280;27371;42.686;23.362;2023-02-12T07:58:41;162369.50;;;0.65;67.25
41688;BME280;27371;42.686;23.362;2023-02-12T08:01:23;162348.25;;;0.57;67.24
41688;BME280;27371;42.686;23.362;2023-02-12T08:03:50;162338.97;;;0.53;66.97
41688;BME280;27371;42.686;23.362;2023-02-12T08:06:17;162299.13;;;0.38;67.14
41688;BME280;27371;42.686;23.362;2023-02-12T08:08:44;162283.22;;;0.32;68.22
41688;BME280;27371;42.686;23.362;2023-02-12T08:11:11;162247.38;;;0.18;69.22
41688;BME280;27371;42.686;23.362;2023-02-12T08:13:38;162259.34;;;0.22;69.62
41688;BME280;27371;42.686;23.362;2023-02-12T08:16:06;162250.03;;;0.19;70.10
41688;BME280;27371;42.686;23.362;2023-02-12T08:18:32;162273.94;;;0.28;70.32
41688;BME280;27371;42.686;23.362;2023-02-12T08:21:12;162297.81;;;0.37;69.85
41688;BME280;27371;42.686;23.362;2023-02-12T08:23:38;162327.03;;;0.49;69.56
41688;BME280;27371;42.686;23.362;2023-02-12T08:26:13;162338.97;;;0.53;69.51
41688;BME280;27371;42.686;23.362;2023-02-12T08:28:41;162333.66;;;0.51;69.94
41688;BME280;27371;42.686;23.362;2023-02-12T08:31:18;162299.13;;;0.38;69.51
41688;BME280;27371;42.686;23.362;2023-02-12T08:33:45;162311.09;;;0.42;69.59
41688;BME280;27371;42.686;23.362;2023-02-12T08:36:13;162297.81;;;0.37;69.89
41688;BME280;27371;42.686;23.362;2023-02-12T08:38:40;162281.91;;;0.31;70.25
41688;BME280;27371;42.686;23.362;2023-02-12T08:41:08;162305.78;;;0.40;70.64
41688;BME280;27371;42.686;23.362;2023-02-12T08:43:34;162313.72;;;0.43;70.20
41688;BME280;27371;42.686;23.362;2023-02-12T08:46:04;162299.13;;;0.38;68.64
41688;BME280;27371;42.686;23.362;2023-02-12T08:48:30;162255.34;;;0.21;68.39
41688;BME280;27371;42.686;23.362;2023-02-12T08:51:23;162246.06;;;0.17;69.20
41688;BME280;27371;42.686;23.362;2023-02-12T08:53:52;162211.56;;;0.04;69.92
41688;BME280;27371;42.686;23.362;2023-02-12T08:56:18;162216.88;;;0.06;70.68
41688;BME280;27371;42.686;23.362;2023-02-12T08:58:44;162227.47;;;0.10;70.85
41688;BME280;27371;42.686;23.362;2023-02-12T09:01:13;162259.34;;;0.22;71.29
41688;BME280;27371;42.686;23.362;2023-02-12T09:03:40;162341.63;;;0.54;72.22
41688;BME280;27371;42.686;23.362;2023-02-12T09:06:06;162345.63;;;0.56;70.71
41688;BME280;27371;42.686;23.362;2023-02-12T09:08:33;162334.97;;;0.52;70.57
41688;BME280;27371;42.686;23.362;2023-02-12T09:10:58;162316.41;;;0.44;70.41
41688;BME280;27371;42.686;23.362;2023-02-12T09:13:24;162342.94;;;0.55;71.06
41688;BME280;27371;42.686;23.362;2023-02-12T09:15:49;162357.53;;;0.60;70.68
41688;BME280;27371;42.686;23.362;2023-02-12T09:18:15;162362.88;;;0.62;70.95
41688;BME280;27371;42.686;23.362;2023-02-12T09:20:43;162378.78;;;0.69;70.71
41688;BME280;27371;42.686;23.362;2023-02-12T09:23:11;162386.75;;;0.72;70.83
41688;BME280;27371;42.686;23.362;2023-02-12T09:25:43;162398.72;;;0.76;70.85
41688;BME280;27371;42.686;23.362;2023-02-12T09:28:10;162397.41;;;0.76;70.94
41688;BME280;27371;42.686;23.362;2023-02-12T09:30:37;162423.97;;;0.86;70.54
41688;BME280;27371;42.686;23.362;2023-02-12T09:33:03;162439.88;;;0.92;70.24
41688;BME280;27371;42.686;23.362;2023-02-12T09:35:29;162439.88;;;0.92;70.14
41688;BME280;27371;42.686;23.362;2023-02-12T09:37:55;162455.81;;;0.98;69.98
41688;BME280;27371;42.686;23.362;2023-02-12T09:45:28;162544.81;;;1.32;68.98
41688;BME280;27371;42.686;23.362;2023-02-12T09:50:53;162568.72;;;1.42;68.35
41688;BME280;27371;42.686;23.362;2023-02-12T09:53:24;162587.28;;;1.49;68.29
41688;BME280;27371;42.686;23.362;2023-02-12T09:55:50;162583.31;;;1.47;68.03
41688;BME280;27371;42.686;23.362;2023-02-12T10:01:10;162694.97;;;1.90;67.28
41688;BME280;27371;42.686;23.362;2023-02-12T10:03:37;162734.78;;;2.06;66.99
41688;BME280;27371;42.686;23.362;2023-02-12T10:06:13;162768.03;;;2.18;66.83
41688;BME280;27371;42.686;23.362;2023-02-12T10:27:42;162797.28;;;2.30;65.01
41688;BME280;27371;42.686;23.362;2023-02-12T10:30:17;162791.94;;;2.28;65.27
41688;BME280;27371;42.686;23.362;2023-02-12T10:32:45;162801.25;;;2.31;65.51
41688;BME280;27371;42.686;23.362;2023-02-12T10:35:16;162766.72;;;2.18;65.38
41688;BME280;27371;42.686;23.362;2023-02-12T10:40:22;162817.22;;;2.37;65.10
41688;BME280;27371;42.686;23.362;2023-02-12T10:42:50;162850.44;;;2.50;67.60
41688;BME280;27371;42.686;23.362;2023-02-12T10:45:19;163049.91;;;3.27;65.77
41688;BME280;27371;42.686;23.362;2023-02-12T10:47:46;163019.31;;;3.15;63.20
41688;BME280;27371;42.686;23.362;2023-02-12T10:52:53;162914.25;;;2.75;63.47
41688;BME280;27371;42.686;23.362;2023-02-12T10:55:29;162930.19;;;2.81;63.38
41688;BME280;27371;42.686;23.362;2023-02-12T10:57:56;162935.53;;;2.83;63.06
41688;BME280;27371;42.686;23.362;2023-02-12T11:05:42;162975.44;;;2.98;63.15
41688;BME280;27371;42.686;23.362;2023-02-12T11:08:32;162992.72;;;3.05;62.83
41688;BME280;27371;42.686;23.362;2023-02-12T11:11:04;163002.00;;;3.08;62.33
41688;BME280;27371;42.686;23.362;2023-02-12T11:13:30;163021.97;;;3.16;62.31
41688;BME280;27371;42.686;23.362;2023-02-12T11:15:56;163052.53;;;3.28;62.04
41688;BME280;27371;42.686;23.362;2023-02-12T11:18:27;163100.44;;;3.46;61.60
41688;BME280;27371;42.686;23.362;2023-02-12T11:21:09;163111.09;;;3.50;61.22
41688;BME280;27371;42.686;23.362;2023-02-12T11:23:40;163105.78;;;3.48;61.24
41688;BME280;27371;42.686;23.362;2023-02-12T11:26:24;163040.59;;;3.23;60.98
41688;BME280;27371;42.686;23.362;2023-02-12T11:28:58;163031.25;;;3.20;61.60
41688;BME280;27371;42.686;23.362;2023-02-12T11:31:28;163039.28;;;3.23;61.98
41688;BME280;27371;42.686;23.362;2023-02-12T11:34:13;163029.94;;;3.19;61.68
41688;BME280;27371;42.686;23.362;2023-02-12T11:36:48;163036.59;;;3.22;61.55
41688;BME280;27371;42.686;23.362;2023-02-12T11:39:22;163033.94;;;3.21;61.64
41688;BME280;27371;42.686;23.362;2023-02-12T11:44:28;162998.03;;;3.07;61.60
41688;BME280;27371;42.686;23.362;2023-02-12T11:49:28;163014.00;;;3.13;62.02
41688;BME280;27371;42.686;23.362;2023-02-12T11:51:56;163027.28;;;3.18;61.62
41688;BME280;27371;42.686;23.362;2023-02-12T11:54:26;163047.25;;;3.26;61.75
41688;BME280;27371;42.686;23.362;2023-02-12T11:56:53;163089.81;;;3.42;61.51
41688;BME280;27371;42.686;23.362;2023-02-12T11:59:35;163100.44;;;3.46;61.20
41688;BME280;27371;42.686;23.362;2023-02-12T12:02:18;163128.38;;;3.57;61.05
41688;BME280;27371;42.686;23.362;2023-02-12T12:04:51;163131.03;;;3.58;60.87
41688;BME280;27371;42.686;23.362;2023-02-12T12:07:24;163105.78;;;3.48;60.93
41688;BME280;27371;42.686;23.362;2023-02-12T12:10:04;163063.19;;;3.32;61.13
41688;BME280;27371;42.686;23.362;2023-02-12T12:12:39;163063.19;;;3.32;61.16
41688;BME280;27371;42.686;23.362;2023-02-12T12:15:21;163095.09;;;3.44;61.36
41688;BME280;27371;42.686;23.362;2023-02-12T12:23:41;163132.41;;;3.59;60.59
41688;BME280;27371;42.686;23.362;2023-02-12T12:26:13;163174.97;;;3.75;62.25
41688;BME280;27371;42.686;23.362;2023-02-12T12:28:47;163143.00;;;3.63;61.50
41688;BME280;27371;42.686;23.362;2023-02-12T12:34:11;163124.38;;;3.55;61.07
41688;BME280;27371;42.686;23.362;2023-02-12T12:53:38;163232.13;;;3.97;59.18
41688;BME280;27371;42.686;23.362;2023-02-12T13:04:52;163111.09;;;3.50;61.36
41688;BME280;27371;42.686;23.362;2023-02-12T13:10:38;163119.09;;;3.53;60.98
41688;BME280;27371;42.686;23.362;2023-02-12T13:13:40;163119.09;;;3.53;61.24
41688;BME280;27371;42.686;23.362;2023-02-12T13:24:06;163141.69;;;3.62;61.50
41688;BME280;27371;42.686;23.362;2023-02-12T13:29:10;163140.38;;;3.62;60.69
41688;BME280;27371;42.686;23.362;2023-02-12T13:31:47;163157.66;;;3.68;61.01
41688;BME280;27371;42.686;23.362;2023-02-12T13:34:14;163182.94;;;3.78;60.83
41688;BME280;27371;42.686;23.362;2023-02-12T13:36:42;163168.31;;;3.72;60.68
41688;BME280;27371;42.686;23.362;2023-02-12T13:44:56;163218.88;;;3.92;60.58
41688;BME280;27371;42.686;23.362;2023-02-12T13:47:49;163234.84;;;3.98;60.33
41688;BME280;27371;42.686;23.362;2023-02-12T13:53:14;163229.50;;;3.96;59.77
41688;BME280;27371;42.686;23.362;2023-02-12T13:58:52;163111.09;;;3.50;61.22
41688;BME280;27371;42.686;23.362;2023-02-12T14:01:42;163091.13;;;3.43;61.58
41688;BME280;27371;42.686;23.362;2023-02-12T14:07:05;163103.09;;;3.47;61.89
41688;BME280;27371;42.686;23.362;2023-02-12T14:12:34;163045.94;;;3.25;61.86
41688;BME280;27371;42.686;23.362;2023-02-12T14:15:08;163057.88;;;3.30;62.27
41688;BME280;27371;42.686;23.362;2023-02-12T14:27:56;163125.75;;;3.56;62.20
41688;BME280;27371;42.686;23.362;2023-02-12T14:30:36;163115.06;;;3.52;62.12
41688;BME280;27371;42.686;23.362;2023-02-12T14:33:21;163140.38;;;3.62;62.14
41688;BME280;27371;42.686;23.362;2023-02-12T14:35:48;163123.03;;;3.55;61.59
41688;BME280;27371;42.686;23.362;2023-02-12T14:41:28;163041.91;;;3.24;62.98
41688;BME280;27371;42.686;23.362;2023-02-12T14:49:33;163025.97;;;3.18;63.43
41688;BME280;27371;42.686;23.362;2023-02-12T14:55:04;163016.63;;;3.14;63.71
41688;BME280;27371;42.686;23.362;2023-02-12T14:57:33;163014.00;;;3.13;63.62
41688;BME280;27371;42.686;23.362;2023-02-12T15:00:28;163011.34;;;3.12;63.83
41688;BME280;27371;42.686;23.362;2023-02-12T15:05:36;162980.72;;;3.00;63.87
41688;BME280;27371;42.686;23.362;2023-02-12T15:08:17;162983.41;;;3.01;64.00
41688;BME280;27371;42.686;23.362;2023-02-12T15:10:53;162991.38;;;3.04;63.80
41688;BME280;27371;42.686;23.362;2023-02-12T15:13:25;162964.78;;;2.94;63.77
41688;BME280;27371;42.686;23.362;2023-02-12T15:16:11;162999.34;;;3.07;63.97
41688;BME280;27371;42.686;23.362;2023-02-12T15:18:47;163009.97;;;3.11;63.85
41688;BME280;27371;42.686;23.362;2023-02-12T15:21:23;163002.00;;;3.08;64.20
41688;BME280;27371;42.686;23.362;2023-02-12T15:24:05;163006.00;;;3.10;64.18
41688;BME280;27371;42.686;23.362;2023-02-12T15:26:35;163014.00;;;3.13;64.10
41688;BME280;27371;42.686;23.362;2023-02-12T15:29:02;163003.38;;;3.09;64.96
41688;BME280;27371;42.686;23.362;2023-02-12T15:31:30;163045.94;;;3.25;64.44
41688;BME280;27371;42.686;23.362;2023-02-12T15:33:58;163049.91;;;3.27;64.25
41688;BME280;27371;42.686;23.362;2023-02-12T15:36:26;163059.19;;;3.30;63.83
41688;BME280;27371;42.686;23.362;2023-02-12T15:38:55;162999.34;;;3.07;63.67
41688;BME280;27371;42.686;23.362;2023-02-12T15:41:39;162934.22;;;2.82;64.60
41688;BME280;27371;42.686;23.362;2023-02-12T15:44:29;162882.34;;;2.62;66.28
41688;BME280;27371;42.686;23.362;2023-02-12T15:47:10;162881.03;;;2.62;66.95
41688;BME280;27371;42.686;23.362;2023-02-12T15:49:37;162841.13;;;2.47;67.03
41688;BME280;27371;42.686;23.362;2023-02-12T15:52:26;162831.84;;;2.43;67.48
41688;BME280;27371;42.686;23.362;2023-02-12T15:54:59;162826.50;;;2.41;67.92
41688;BME280;27371;42.686;23.362;2023-02-12T15:57:25;162818.53;;;2.38;68.13
41688;BME280;27371;42.686;23.362;2023-02-12T15:59:57;162806.56;;;2.33;68.56
41688;BME280;27371;42.686;23.362;2023-02-12T16:02:30;162803.94;;;2.32;69.16